Time;durP1;ratioP1;P1;durP2;ratioP2;P2;SDS_P1;SDS_P2;PMS_P1;PMS_P2;Temp;Humidity;BMP_temperature;BMP_pressure;BME280_temperature;BME280_humidity;BME280_pressure;Samples;Min_cycle;Max_cycle;Signal;HPM_P1;HPM_P2
2022/07/14 00:00:53;;;;;;;5.85;2.05;;;;;;;14.05;89.60;102161.72;5022717;28;20586;-84
2022/07/14 00:03:18;;;;;;;5.50;2.47;;;;;;;14.01;89.83;102157.44;5022076;28;20052;-84
2022/07/14 00:05:44;;;;;;;3.72;2.05;;;;;;;13.98;89.62;102158.41;5016805;28;20503;-83
2022/07/14 00:08:09;;;;;;;7.15;2.38;;;;;;;13.96;89.91;102170.94;5023906;28;20037;-83
2022/07/14 00:10:35;;;;;;;4.70;1.70;;;;;;;13.94;90.22;102176.31;5005950;28;20144;-83
2022/07/14 00:13:00;;;;;;;5.63;2.50;;;;;;;13.93;90.45;102174.56;5007518;28;20148;-86
2022/07/14 00:15:27;;;;;;;3.72;2.00;;;;;;;13.93;90.76;102163.91;5020099;28;20039;-86
2022/07/14 00:17:52;;;;;;;2.72;1.83;;;;;;;13.93;90.30;102169.25;5023518;28;20042;-84
2022/07/14 00:20:18;;;;;;;3.65;1.50;;;;;;;13.91;90.60;102165.78;5022491;28;20131;-85
2022/07/14 00:22:44;;;;;;;3.88;1.65;;;;;;;13.90;91.03;102158.69;5024646;28;20041;-85
2022/07/14 00:25:10;;;;;;;4.85;1.63;;;;;;;13.90;90.98;102169.34;4983829;28;20621;-83
2022/07/14 00:27:36;;;;;;;4.63;1.50;;;;;;;13.89;91.15;102162.28;5024878;28;20033;-85
2022/07/14 00:30:04;;;;;;;3.80;1.95;;;;;;;13.88;91.26;102159.72;5022671;28;20032;-85
2022/07/14 00:32:29;;;;;;;2.72;1.75;;;;;;;13.87;91.08;102164.16;5021902;28;20124;-85
2022/07/14 00:34:58;;;;;;;5.00;1.85;;;;;;;13.85;90.99;102158.03;5023897;28;20043;-83
2022/07/14 00:37:24;;;;;;;4.65;2.00;;;;;;;13.84;91.48;102158.97;5021960;28;20032;-84
2022/07/14 00:39:55;;;;;;;4.05;1.80;;;;;;;13.83;91.22;102162.53;5024630;28;20879;-85
2022/07/14 00:42:37;;;;;;;3.92;1.95;;;;;;;13.84;91.88;102158.97;5023737;28;20037;-86
2022/07/14 00:45:09;;;;;;;9.47;2.43;;;;;;;13.81;91.43;102149.31;4986170;28;20064;-85
2022/07/14 00:47:35;;;;;;;4.05;2.10;;;;;;;13.80;91.50;102149.34;5023670;28;20040;-85
2022/07/14 00:50:00;;;;;;;3.35;2.20;;;;;;;13.75;91.56;102153.97;5025097;28;20037;-86
2022/07/14 00:52:27;;;;;;;5.32;2.20;;;;;;;13.73;91.54;102147.84;5026479;28;20514;-85
2022/07/14 00:54:53;;;;;;;4.88;1.83;;;;;;;13.70;91.64;102152.38;5005517;28;20033;-86
2022/07/14 00:57:20;;;;;;;3.88;1.60;;;;;;;13.67;91.79;102152.47;5015689;28;20140;-84
2022/07/14 00:59:46;;;;;;;5.18;1.83;;;;;;;13.67;91.91;102157.78;5024358;28;20029;-85
2022/07/14 01:02:12;;;;;;;3.63;1.80;;;;;;;13.67;92.18;102151.63;5019064;28;20037;-84
2022/07/14 01:04:38;;;;;;;2.03;1.65;;;;;;;13.64;92.38;102146.41;5027309;28;20021;-84
2022/07/14 01:07:03;;;;;;;4.68;1.92;;;;;;;13.60;92.71;102140.31;5028217;28;20025;-86
2022/07/14 01:09:29;;;;;;;3.97;1.70;;;;;;;13.57;92.21;102135.13;5026450;28;20040;-85
2022/07/14 01:11:54;;;;;;;6.53;1.83;;;;;;;13.54;92.44;102135.22;5028719;28;20507;-90
2022/07/14 01:14:20;;;;;;;4.43;1.92;;;;;;;13.53;92.63;102138.81;5028289;28;20040;-85
2022/07/14 01:16:46;;;;;;;3.70;1.75;;;;;;;13.50;92.60;102138.94;5009052;28;20034;-88
2022/07/14 01:19:12;;;;;;;2.90;1.70;;;;;;;13.46;92.26;102138.19;5011302;28;20029;-88
2022/07/14 01:21:37;;;;;;;3.92;1.80;;;;;;;13.44;92.48;102138.22;5027375;28;21043;-89
2022/07/14 01:24:03;;;;;;;6.20;2.25;;;;;;;13.42;92.75;102132.06;5043178;28;20032;-88
2022/07/14 01:26:28;;;;;;;3.17;2.33;;;;;;;13.40;92.47;102133.06;5021378;28;20037;-87
2022/07/14 01:28:54;;;;;;;3.58;1.80;;;;;;;13.38;92.83;102130.47;5026288;28;20056;-87
2022/07/14 01:31:22;;;;;;;5.38;2.10;;;;;;;13.36;92.67;102132.31;5012244;28;20038;-89
2022/07/14 01:33:47;;;;;;;1.85;1.40;;;;;;;13.33;92.66;102132.41;5028598;28;20036;-87
2022/07/14 01:36:13;;;;;;;2.75;1.65;;;;;;;13.32;92.29;102136.00;5024492;28;20033;-86
2022/07/14 01:38:39;;;;;;;7.20;1.88;;;;;;;13.30;92.72;102130.72;5030074;28;20033;-90
2022/07/14 01:41:04;;;;;;;6.30;1.90;;;;;;;13.28;92.93;102129.03;5027239;28;20024;-90
2022/07/14 01:43:30;;;;;;;5.28;2.00;;;;;;;13.26;92.76;102134.44;5026881;28;20056;-87
2022/07/14 01:45:55;;;;;;;4.35;1.90;;;;;;;13.25;92.84;102126.50;5026612;28;20063;-87
2022/07/14 01:48:21;;;;;;;3.38;1.35;;;;;;;13.22;92.50;102130.16;5024683;28;20103;-87
2022/07/14 01:50:47;;;;;;;5.32;1.65;;;;;;;13.20;92.60;102120.47;5026678;28;20114;-87
2022/07/14 01:53:13;;;;;;;1.83;1.30;;;;;;;13.17;92.83;102127.66;5023855;28;20029;-88
2022/07/14 01:55:39;;;;;;;4.18;1.60;;;;;;;13.16;92.27;102127.72;5025046;28;20036;-87
2022/07/14 01:58:04;;;;;;;4.68;1.50;;;;;;;13.13;92.33;102125.16;5009307;28;20028;-87
2022/07/14 02:00:30;;;;;;;4.65;1.50;;;;;;;13.11;92.75;102127.00;5006144;28;20038;-86
2022/07/14 02:02:55;;;;;;;4.25;1.60;;;;;;;13.10;93.39;102126.16;5002165;28;20880;-87
2022/07/14 02:05:21;;;;;;;5.20;1.90;;;;;;;13.07;93.41;102130.72;5028906;28;20021;-87
2022/07/14 02:07:46;;;;;;;3.80;1.58;;;;;;;13.03;93.77;102133.47;5024450;28;20064;-87
2022/07/14 02:12:56;;;;;;;2.97;1.60;;;;;;;12.99;93.41;102134.50;5027600;28;20037;-88
2022/07/14 02:15:22;;;;;;;2.22;1.48;;;;;;;12.97;93.63;102131.00;4988296;28;20845;-86
2022/07/14 02:17:48;;;;;;;4.57;1.83;;;;;;;12.95;93.84;102129.31;5025670;28;20083;-90
2022/07/14 02:20:14;;;;;;;5.80;1.80;;;;;;;12.93;93.92;102137.38;5026103;28;20054;-89
2022/07/14 02:22:39;;;;;;;3.20;1.50;;;;;;;12.91;93.88;102131.22;5030154;28;20045;-87
2022/07/14 02:25:05;;;;;;;5.43;1.60;;;;;;;12.88;93.94;102140.19;5008594;28;20046;-86
2022/07/14 02:27:31;;;;;;;3.13;1.40;;;;;;;12.87;94.21;102130.47;5023402;28;20028;-87
2022/07/14 02:29:56;;;;;;;4.15;1.80;;;;;;;12.84;94.28;102141.22;5029107;28;20042;-87
2022/07/14 02:32:22;;;;;;;2.72;1.48;;;;;;;12.83;94.23;102135.94;5025737;28;20029;-87
2022/07/14 02:34:48;;;;;;;5.47;1.98;;;;;;;12.79;94.65;102132.53;5009544;28;20578;-87
2022/07/14 02:37:14;;;;;;;2.38;1.45;;;;;;;12.77;94.77;102127.25;5024789;28;20068;-88
2022/07/14 02:39:39;;;;;;;2.22;1.35;;;;;;;12.75;94.91;102130.91;5022471;28;20035;-85
2022/07/14 02:42:05;;;;;;;7.72;2.00;;;;;;;12.72;94.82;102131.00;5024550;28;20033;-86
2022/07/14 02:44:30;;;;;;;4.22;1.77;;;;;;;12.70;95.03;102127.53;5027346;28;20040;-86
2022/07/14 02:46:56;;;;;;;2.20;1.55;;;;;;;12.67;94.97;102125.84;5023643;28;20037;-85
2022/07/14 02:49:21;;;;;;;6.32;2.15;;;;;;;12.66;95.08;102132.09;5022833;28;20033;-86
2022/07/14 02:51:47;;;;;;;3.42;1.98;;;;;;;12.65;95.20;102140.09;5024724;28;20796;-86
2022/07/14 02:54:12;;;;;;;5.40;1.98;;;;;;;12.60;95.33;102125.16;5023811;28;20122;-88
2022/07/14 02:56:38;;;;;;;4.15;2.35;;;;;;;12.59;95.35;102112.81;5027430;28;20038;-86
2022/07/14 02:59:06;;;;;;;3.58;2.30;;;;;;;12.58;95.88;102116.38;4989490;28;20065;-87
2022/07/14 03:01:31;;;;;;;4.25;1.52;;;;;;;12.56;95.98;102115.59;5038372;28;20033;-86
2022/07/14 03:03:57;;;;;;;3.78;2.03;;;;;;;12.55;96.18;102116.50;5025928;28;20074;-87
2022/07/14 03:06:22;;;;;;;3.35;2.03;;;;;;;12.53;95.92;102114.81;5030211;28;20021;-87
2022/07/14 03:08:48;;;;;;;3.70;1.90;;;;;;;12.51;96.19;102120.19;5027961;28;20124;-87
2022/07/14 03:11:14;;;;;;;4.78;2.03;;;;;;;12.50;96.14;102123.75;5028577;28;20037;-87
2022/07/14 03:13:40;;;;;;;8.45;2.05;;;;;;;12.48;96.03;102120.28;5026518;28;21851;-87
2022/07/14 03:16:08;;;;;;;2.67;1.75;;;;;;;12.48;96.65;102114.97;5025030;28;20734;-88
2022/07/14 03:18:34;;;;;;;2.80;1.60;;;;;;;12.47;96.53;102123.84;5025308;28;20043;-87
2022/07/14 03:20:59;;;;;;;5.93;1.85;;;;;;;12.47;96.41;102118.53;5024872;28;20044;-86
2022/07/14 03:23:25;;;;;;;8.77;2.10;;;;;;;12.45;96.86;102112.41;5026294;28;20041;-87
2022/07/14 03:25:50;;;;;;;3.83;1.88;;;;;;;12.43;97.21;102111.59;5024120;28;20130;-86
2022/07/14 03:28:16;;;;;;;2.75;1.80;;;;;;;12.45;98.22;102109.75;5027209;28;20056;-86
2022/07/14 03:30:42;;;;;;;4.65;2.00;;;;;;;12.46;97.29;102108.81;5026863;28;20025;-87
2022/07/14 03:33:07;;;;;;;4.53;2.08;;;;;;;12.42;97.14;102104.56;5025792;28;20113;-86
2022/07/14 03:35:38;;;;;;;3.22;2.17;;;;;;;12.38;97.13;102111.75;5035490;28;20067;-85
2022/07/14 03:38:03;;;;;;;4.10;1.92;;;;;;;12.36;97.14;102116.22;5002669;28;20045;-86
2022/07/14 03:40:31;;;;;;;5.72;2.22;;;;;;;12.33;97.07;102114.53;5009711;28;20064;-86
2022/07/14 03:42:57;;;;;;;5.00;1.80;;;;;;;12.34;97.54;102126.94;5027010;28;20053;-86
2022/07/14 03:45:22;;;;;;;3.45;2.05;;;;;;;12.32;97.67;102123.44;5024128;28;20156;-87
2022/07/14 03:47:48;;;;;;;6.40;2.45;;;;;;;12.30;97.51;102119.97;5027499;28;21795;-85
2022/07/14 03:50:14;;;;;;;7.97;2.13;;;;;;;12.29;97.77;102118.22;5027222;28;21789;-87
2022/07/14 03:52:39;;;;;;;3.90;1.80;;;;;;;12.28;98.00;102119.16;5009749;28;20486;-85
2022/07/14 03:55:05;;;;;;;4.43;1.95;;;;;;;12.27;98.26;102125.38;5023103;28;20029;-86
2022/07/14 03:57:31;;;;;;;4.90;2.50;;;;;;;12.25;98.88;102129.00;5026756;28;20558;-86
2022/07/14 03:59:57;;;;;;;3.97;2.08;;;;;;;12.22;99.42;102136.13;5006028;28;20143;-88
2022/07/14 04:02:23;;;;;;;6.25;2.42;;;;;;;12.22;99.74;102129.97;5026327;28;20037;-86
2022/07/14 04:04:48;;;;;;;2.63;2.10;;;;;;;12.21;99.82;102130.88;5025908;28;20036;-88
2022/07/14 04:07:14;;;;;;;3.78;2.40;;;;;;;12.21;99.69;102128.22;5008612;28;20135;-85
2022/07/14 04:09:40;;;;;;;3.30;1.80;;;;;;;12.21;100.00;102126.44;5026915;28;20152;-86
2022/07/14 04:12:06;;;;;;;4.07;2.20;;;;;;;12.24;100.00;102129.94;5010419;28;20113;-86
2022/07/14 04:14:31;;;;;;;4.28;2.20;;;;;;;12.25;100.00;102136.97;5022720;28;20124;-86
2022/07/14 04:16:57;;;;;;;4.70;2.40;;;;;;;12.28;100.00;102132.44;5026449;28;20490;-85
2022/07/14 04:19:23;;;;;;;5.30;2.30;;;;;;;12.30;100.00;102130.59;5024059;28;20488;-84
2022/07/14 04:21:48;;;;;;;3.28;2.13;;;;;;;12.32;100.00;102127.88;5028069;28;20491;-86
2022/07/14 04:24:14;;;;;;;4.82;1.88;;;;;;;12.35;100.00;102135.75;5023553;28;20025;-86
2022/07/14 04:26:42;;;;;;;4.18;1.88;;;;;;;12.38;100.00;102125.03;5022349;28;20047;-84
2022/07/14 04:29:08;;;;;;;4.32;2.38;;;;;;;12.41;100.00;102126.72;5020816;28;20065;-85
2022/07/14 04:31:34;;;;;;;5.68;2.03;;;;;;;12.46;100.00;102125.66;5035056;28;20426;-85
2022/07/14 04:34:00;;;;;;;6.65;2.28;;;;;;;12.49;100.00;102130.84;5004101;28;20025;-86
2022/07/14 04:36:25;;;;;;;6.43;2.10;;;;;;;12.55;100.00;102132.44;4992030;28;20064;-85
2022/07/14 04:38:51;;;;;;;2.80;1.85;;;;;;;12.60;100.00;102142.91;5020463;28;20037;-85
2022/07/14 04:41:17;;;;;;;3.55;2.00;;;;;;;12.64;100.00;102139.22;5024890;28;20045;-86
2022/07/14 04:43:42;;;;;;;5.00;1.88;;;;;;;12.67;100.00;102133.81;5025894;28;20153;-86
2022/07/14 04:46:09;;;;;;;2.40;2.00;;;;;;;12.73;100.00;102127.41;4991496;28;20400;-86
2022/07/14 04:52:01;;;;;;;6.15;1.83;;;;;;;12.78;100.00;102136.09;5010611;28;20037;-87
2022/07/14 04:54:04;;;;;;;3.33;2.28;;;;;;;12.90;100.00;102130.38;5025439;28;20500;-86
2022/07/14 04:56:30;;;;;;;1.52;1.42;;;;;;;12.96;100.00;102131.09;5026837;28;20024;-85
2022/07/14 04:58:56;;;;;;;1.92;1.60;;;;;;;13.04;100.00;102137.84;5028521;28;20468;-86
2022/07/14 05:01:21;;;;;;;2.90;1.58;;;;;;;13.11;100.00;102133.19;5028185;28;20511;-85
2022/07/14 05:03:47;;;;;;;2.00;1.63;;;;;;;13.20;100.00;102128.47;5028254;28;20028;-85
2022/07/14 05:06:12;;;;;;;3.40;1.30;;;;;;;13.27;100.00;102129.97;5028748;28;20029;-85
2022/07/14 05:08:38;;;;;;;4.43;1.70;;;;;;;13.36;100.00;102119.03;5006348;28;20407;-85
2022/07/14 05:11:06;;;;;;;2.03;1.42;;;;;;;13.46;100.00;102116.03;5027881;28;20033;-86
2022/07/14 05:13:34;;;;;;;7.88;1.48;;;;;;;13.55;100.00;102115.69;5021907;28;20071;-86
2022/07/14 05:16:00;;;;;;;3.47;1.50;;;;;;;13.61;99.63;102110.13;5025599;28;20044;-87
2022/07/14 05:18:25;;;;;;;3.60;1.20;;;;;;;13.69;99.43;102109.84;5026936;28;20472;-86
2022/07/14 05:20:51;;;;;;;4.07;1.33;;;;;;;13.78;98.96;102120.13;5026813;28;20071;-86
2022/07/14 05:23:17;;;;;;;2.10;1.13;;;;;;;13.87;98.77;102120.69;5022418;28;20420;-85
2022/07/14 05:25:42;;;;;;;2.42;1.20;;;;;;;13.96;98.36;102112.34;5025720;28;20052;-84
2022/07/14 05:28:08;;;;;;;2.47;1.00;;;;;;;14.06;98.23;102120.84;5009569;28;20068;-83
2022/07/14 05:30:34;;;;;;;3.67;1.27;;;;;;;14.19;97.99;102111.44;5008332;28;20067;-83
2022/07/14 05:32:59;;;;;;;2.70;1.20;;;;;;;14.31;97.38;102114.50;5026274;28;22021;-86
2022/07/14 05:35:25;;;;;;;2.05;1.10;;;;;;;14.42;97.46;102120.28;5019710;28;20155;-83
2022/07/14 05:37:50;;;;;;;3.92;1.10;;;;;;;14.49;96.84;102119.06;5025207;28;20154;-84
2022/07/14 05:40:16;;;;;;;2.10;1.17;;;;;;;14.61;97.23;102124.84;5024275;28;20026;-88
2022/07/14 05:42:44;;;;;;;3.45;1.05;;;;;;;14.72;96.44;102119.03;5026294;28;20584;-83
2022/07/14 05:45:10;;;;;;;1.33;0.95;;;;;;;14.84;96.07;102117.69;5024191;28;20044;-83
2022/07/14 05:47:35;;;;;;;1.50;0.90;;;;;;;14.96;95.96;102126.94;5025146;28;20064;-81
2022/07/14 05:50:03;;;;;;;4.57;0.95;;;;;;;15.13;95.71;102118.19;5002798;28;20116;-84
2022/07/14 05:52:30;;;;;;;1.30;0.80;;;;;;;15.30;95.25;102128.09;4980230;28;20080;-82
2022/07/14 05:54:59;;;;;;;3.67;1.00;;;;;;;15.48;95.03;102123.75;5021586;28;20139;-87
2022/07/14 05:57:24;;;;;;;3.03;0.98;;;;;;;15.60;94.48;102127.66;5019839;28;20025;-81
2022/07/14 05:59:50;;;;;;;2.85;1.20;;;;;;;15.74;93.93;102132.31;5014645;28;20021;-84
2022/07/14 06:02:16;;;;;;;3.10;1.13;;;;;;;15.87;93.87;102128.13;5020869;28;20096;-80
2022/07/14 06:04:41;;;;;;;2.30;0.90;;;;;;;16.07;93.18;102121.00;5025862;28;20152;-83
2022/07/14 06:07:08;;;;;;;2.25;0.90;;;;;;;16.29;92.93;102126.19;5021771;28;20068;-82
2022/07/14 06:09:37;;;;;;;6.75;1.05;;;;;;;16.52;92.11;102125.97;5023158;28;20579;-82
2022/07/14 06:12:05;;;;;;;1.77;1.33;;;;;;;16.67;91.17;102130.53;5024281;28;20043;-81
2022/07/14 06:14:31;;;;;;;5.28;1.02;;;;;;;16.83;90.35;102124.38;5006372;28;20037;-83
2022/07/14 06:16:57;;;;;;;1.70;0.80;;;;;;;16.97;89.85;102121.88;5020762;28;20028;-85
2022/07/14 06:19:23;;;;;;;2.42;0.60;;;;;;;17.13;88.93;102118.44;4984104;28;20044;-82
2022/07/14 06:21:51;;;;;;;1.42;0.63;;;;;;;17.33;88.71;102127.19;5022298;28;20124;-81
2022/07/14 06:24:17;;;;;;;1.50;0.70;;;;;;;17.54;88.42;102124.31;5007129;28;20033;-85
2022/07/14 06:26:43;;;;;;;1.13;0.60;;;;;;;17.71;86.89;102115.34;5025839;28;20044;-83
2022/07/14 06:29:08;;;;;;;0.95;0.50;;;;;;;17.88;85.84;102117.91;5011611;28;20048;-84
2022/07/14 06:31:36;;;;;;;3.45;0.70;;;;;;;18.05;86.09;102114.31;5026898;28;20419;-81
2022/07/14 06:34:03;;;;;;;2.50;0.73;;;;;;;18.19;85.90;102126.06;5023709;28;20041;-85
2022/07/14 06:36:28;;;;;;;3.58;0.70;;;;;;;18.38;85.41;102125.00;5026225;28;21477;-82
2022/07/14 06:38:54;;;;;;;0.47;0.40;;;;;;;18.53;84.87;102118.72;5011020;28;20115;-87
2022/07/14 06:41:20;;;;;;;1.08;0.50;;;;;;;18.62;84.94;102117.31;5007859;28;20041;-90
2022/07/14 06:43:46;;;;;;;0.95;0.40;;;;;;;18.77;83.45;102120.91;5021359;28;20128;-87
2022/07/14 06:46:15;;;;;;;1.20;0.57;;;;;;;18.97;83.39;102127.72;5026990;28;20032;-86
2022/07/14 06:48:42;;;;;;;1.90;0.52;;;;;;;19.13;83.58;102127.69;5026104;28;20479;-84
2022/07/14 06:51:07;;;;;;;1.08;0.50;;;;;;;19.24;82.83;102126.16;5005218;28;20057;-85
2022/07/14 06:53:33;;;;;;;1.40;0.50;;;;;;;19.18;82.35;102119.34;5004063;28;20090;-84
2022/07/14 06:55:59;;;;;;;1.60;0.60;;;;;;;19.32;82.49;102117.63;5024444;28;20036;-83
2022/07/14 06:58:24;;;;;;;1.15;0.45;;;;;;;19.55;81.29;102113.47;5025297;28;20120;-90
2022/07/14 07:00:52;;;;;;;0.40;0.40;;;;;;;19.50;79.48;102121.00;4992018;28;20055;-79
2022/07/14 07:03:18;;;;;;;2.17;0.57;;;;;;;19.38;79.58;102115.44;5025643;28;20056;-85
2022/07/14 07:08:28;;;;;;;0.40;0.40;;;;;;;19.36;80.38;102106.63;5028257;28;20075;-83
2022/07/14 07:10:58;;;;;;;1.75;0.75;;;;;;;19.36;79.41;102108.41;5022068;28;20036;-81
2022/07/14 07:13:27;;;;;;;1.33;0.50;;;;;;;19.44;79.52;102102.56;5001932;28;20049;-81
2022/07/14 07:15:53;;;;;;;4.80;0.40;;;;;;;19.52;79.45;102103.78;5027065;28;20056;-79
2022/07/14 07:18:18;;;;;;;1.40;0.50;;;;;;;19.72;78.93;102098.13;5027091;28;20113;-82
2022/07/14 07:20:44;;;;;;;0.60;0.40;;;;;;;19.89;78.64;102097.88;5025724;28;20051;-80
2022/07/14 07:23:10;;;;;;;1.05;0.57;;;;;;;20.11;76.74;102096.50;5018524;28;20083;-84
2022/07/14 07:25:35;;;;;;;0.40;0.40;;;;;;;20.25;75.97;102094.72;5026227;28;20144;-82
2022/07/14 07:28:02;;;;;;;1.02;0.40;;;;;;;20.21;74.44;102097.59;5025893;28;20116;-79
2022/07/14 07:30:27;;;;;;;0.60;0.30;;;;;;;20.16;75.65;102090.81;5023703;28;20090;-81
2022/07/14 07:32:53;;;;;;;0.63;0.45;;;;;;;20.14;75.96;102093.59;5024345;28;20576;-77
2022/07/14 07:35:19;;;;;;;0.32;0.30;;;;;;;20.08;75.58;102092.19;5033906;28;20636;-76
2022/07/14 07:37:45;;;;;;;0.40;0.30;;;;;;;19.99;75.62;102086.56;5025617;28;20036;-78
2022/07/14 07:40:12;;;;;;;0.75;0.35;;;;;;;20.09;74.14;102095.72;5026906;28;20383;-80
2022/07/14 07:42:37;;;;;;;0.30;0.30;;;;;;;20.17;74.74;102084.47;5022446;28;21768;-76
2022/07/14 07:45:03;;;;;;;0.40;0.40;;;;;;;20.25;73.96;102083.97;5025812;28;20037;-77
2022/07/14 07:47:31;;;;;;;0.90;0.35;;;;;;;20.44;73.29;102076.34;5009428;28;20037;-77
2022/07/14 07:49:57;;;;;;;0.43;0.30;;;;;;;20.54;73.38;102075.75;5024502;28;20529;-77
2022/07/14 07:52:23;;;;;;;0.73;0.30;;;;;;;20.50;72.93;102069.72;5026941;28;20391;-77
2022/07/14 07:54:48;;;;;;;1.13;0.43;;;;;;;20.46;71.07;102071.75;5003435;28;20395;-78
2022/07/14 07:57:14;;;;;;;2.78;0.57;;;;;;;20.36;68.82;102073.31;5026139;28;20049;-77
2022/07/14 07:59:40;;;;;;;0.38;0.30;;;;;;;20.32;71.86;102069.97;5025963;28;20971;-77
2022/07/14 08:02:05;;;;;;;1.02;0.50;;;;;;;20.33;71.92;102081.63;5023726;28;20106;-77
2022/07/14 08:04:36;;;;;;;0.47;0.32;;;;;;;20.32;71.23;102072.66;5003189;28;20056;-77
2022/07/14 08:07:02;;;;;;;0.57;0.40;;;;;;;20.34;71.31;102068.06;5024344;28;20058;-76
2022/07/14 08:09:27;;;;;;;0.32;0.32;;;;;;;20.55;71.36;102074.75;5027192;28;20502;-77
2022/07/14 08:11:54;;;;;;;0.80;0.50;;;;;;;20.61;71.18;102067.13;5024819;28;20031;-77
2022/07/14 08:17:04;;;;;;;1.48;0.55;;;;;;;20.47;70.95;102070.78;5026017;28;20048;-77
2022/07/14 08:19:29;;;;;;;0.70;0.43;;;;;;;20.43;70.37;102063.03;5026192;28;20053;-77
2022/07/14 08:21:55;;;;;;;0.20;0.20;;;;;;;20.36;70.60;102054.50;5025725;28;20041;-76
2022/07/14 08:24:20;;;;;;;0.20;0.20;;;;;;;20.28;70.34;102056.84;5007940;28;20072;-76
2022/07/14 08:26:47;;;;;;;1.67;0.30;;;;;;;20.37;70.12;102058.91;5023124;28;20024;-77
2022/07/14 08:29:13;;;;;;;0.85;0.30;;;;;;;20.46;70.72;102047.53;5024207;28;20049;-76
2022/07/14 08:31:38;;;;;;;0.40;0.40;;;;;;;20.47;69.05;102054.63;5024144;28;20032;-77
2022/07/14 08:34:04;;;;;;;0.82;0.40;;;;;;;20.52;68.09;102046.25;5024886;28;20083;-77
2022/07/14 08:36:30;;;;;;;0.20;0.20;;;;;;;20.52;68.66;102040.03;5026718;28;20079;-77
2022/07/14 08:38:56;;;;;;;0.52;0.40;;;;;;;20.49;69.39;102041.94;5026301;28;20036;-76
2022/07/14 08:41:22;;;;;;;1.98;0.50;;;;;;;20.45;69.10;102044.94;5023769;28;20087;-77
2022/07/14 08:43:49;;;;;;;1.27;0.40;;;;;;;20.30;69.45;102046.84;5025404;28;20511;-79
2022/07/14 08:46:15;;;;;;;1.45;0.40;;;;;;;20.17;69.34;102052.22;5023038;28;20036;-77
2022/07/14 08:48:41;;;;;;;1.63;0.40;;;;;;;20.13;69.79;102046.19;5025783;28;20115;-79
2022/07/14 08:51:08;;;;;;;1.02;0.30;;;;;;;20.05;70.15;102043.16;5022122;28;20032;-78
2022/07/14 08:53:35;;;;;;;1.52;0.40;;;;;;;20.08;70.10;102054.56;5024032;28;20116;-77
2022/07/14 08:56:01;;;;;;;2.10;0.50;;;;;;;20.19;69.50;102061.91;5006450;28;20034;-78
2022/07/14 08:58:27;;;;;;;0.55;0.20;;;;;;;20.25;69.53;102055.22;5024636;28;20641;-76
2022/07/14 09:00:53;;;;;;;0.40;0.40;;;;;;;20.28;69.11;102056.84;5021925;28;20029;-75
2022/07/14 09:03:28;;;;;;;1.67;0.38;;;;;;;20.31;69.28;102059.31;5025717;28;20029;-77
2022/07/14 09:05:54;;;;;;;3.45;0.40;;;;;;;20.34;69.11;102067.19;5024636;28;20439;-80
2022/07/14 09:08:19;;;;;;;1.00;0.40;;;;;;;20.34;69.18;102059.13;5007837;28;20029;-77
2022/07/14 09:10:46;;;;;;;2.00;0.55;;;;;;;20.31;69.53;102056.63;5025927;28;20045;-77
2022/07/14 09:13:19;;;;;;;0.40;0.40;;;;;;;20.20;68.83;102063.63;5024798;28;20037;-78
2022/07/14 09:15:46;;;;;;;0.47;0.47;;;;;;;20.15;70.06;102062.22;5019835;28;20037;-77
2022/07/14 09:18:25;;;;;;;1.25;0.70;;;;;;;20.26;69.28;102066.88;5025063;28;20380;-75
2022/07/14 09:20:53;;;;;;;0.73;0.35;;;;;;;20.44;69.87;102065.59;5024431;28;20041;-77
2022/07/14 09:23:36;;;;;;;1.63;0.50;;;;;;;20.46;68.82;102066.38;5025789;28;20040;-77
2022/07/14 09:26:14;;;;;;;0.40;0.40;;;;;;;20.43;68.66;102065.72;5022878;28;20040;-76
2022/07/14 09:28:46;;;;;;;0.50;0.43;;;;;;;20.39;68.72;102059.69;5022004;28;20020;-78
2022/07/14 09:31:22;;;;;;;0.90;0.38;;;;;;;20.39;69.16;102059.69;4985964;28;20107;-78
2022/07/14 09:34:06;;;;;;;1.13;0.52;;;;;;;20.53;69.18;102055.19;5025296;28;20037;-77
2022/07/14 09:36:34;;;;;;;0.60;0.35;;;;;;;20.64;69.05;102044.53;5024435;28;20115;-76
2022/07/14 09:39:01;;;;;;;0.75;0.50;;;;;;;20.67;69.10;102049.72;5001638;28;20021;-78
2022/07/14 09:41:29;;;;;;;0.57;0.40;;;;;;;20.65;69.26;102050.78;5023613;28;20041;-77
2022/07/14 09:44:10;;;;;;;1.27;0.45;;;;;;;20.49;68.08;102047.31;5025126;28;20044;-76
2022/07/14 09:46:46;;;;;;;0.75;0.47;;;;;;;20.44;68.77;102054.00;5023983;28;20025;-77
2022/07/14 09:49:13;;;;;;;1.05;0.40;;;;;;;20.32;69.16;102061.06;5023458;28;20033;-79
2022/07/14 09:51:54;;;;;;;1.23;0.40;;;;;;;20.11;68.83;102063.38;5008160;28;20136;-78
2022/07/14 09:54:44;;;;;;;0.60;0.40;;;;;;;20.04;68.48;102055.72;5020461;28;20540;-76
2022/07/14 09:57:12;;;;;;;1.42;0.50;;;;;;;20.14;68.31;102057.78;5023031;28;20040;-79
2022/07/14 09:59:52;;;;;;;1.45;0.73;;;;;;;20.11;69.08;102064.25;5020913;28;20037;-78
2022/07/14 10:02:29;;;;;;;0.55;0.50;;;;;;;20.13;69.07;102066.81;5025415;28;20091;-76
2022/07/14 10:05:01;;;;;;;0.63;0.47;;;;;;;20.15;69.59;102062.22;5028060;28;20037;-78
2022/07/14 10:07:28;;;;;;;0.70;0.55;;;;;;;20.19;69.39;102069.97;5027638;28;20543;-77
2022/07/14 10:10:08;;;;;;;1.67;0.50;;;;;;;20.27;68.80;102061.34;5027898;28;20644;-78
2022/07/14 10:12:36;;;;;;;1.38;0.60;;;;;;;20.28;68.57;102071.19;5022386;28;20067;-78
2022/07/14 10:15:07;;;;;;;2.88;0.60;;;;;;;20.32;68.17;102061.06;5025089;28;21701;-79
2022/07/14 10:17:35;;;;;;;0.47;0.47;;;;;;;20.36;68.63;102057.19;5027207;28;20033;-77
2022/07/14 10:20:06;;;;;;;0.63;0.40;;;;;;;20.49;68.16;102057.22;5005042;28;20515;-79
2022/07/14 10:22:32;;;;;;;1.25;0.50;;;;;;;20.56;67.60;102057.66;5021978;28;20043;-78
2022/07/14 10:24:58;;;;;;;2.42;0.50;;;;;;;20.60;67.90;102057.34;5027220;28;20064;-79
2022/07/14 10:27:26;;;;;;;1.85;0.40;;;;;;;20.57;67.60;102064.75;5026136;28;20055;-79
2022/07/14 10:29:53;;;;;;;1.02;0.43;;;;;;;20.45;68.09;102063.78;5021559;28;20052;-77
2022/07/14 10:32:44;;;;;;;1.38;0.50;;;;;;;20.38;67.70;102065.16;5038657;28;20041;-78
2022/07/14 10:35:35;;;;;;;2.10;0.40;;;;;;;20.34;67.43;102057.31;5022260;28;20083;-77
2022/07/14 10:38:25;;;;;;;4.32;0.52;;;;;;;20.33;67.46;102065.47;5028006;28;20041;-77
2022/07/14 10:41:28;;;;;;;0.60;0.38;;;;;;;20.28;66.91;102070.31;5024952;28;20048;-78
2022/07/14 10:44:21;;;;;;;0.38;0.38;;;;;;;20.24;65.98;102066.97;5028353;28;20033;-77
2022/07/14 10:46:49;;;;;;;4.03;0.45;;;;;;;20.25;67.06;102062.47;5027551;28;20326;-78
2022/07/14 10:49:16;;;;;;;1.08;0.40;;;;;;;20.17;66.78;102061.16;5027076;28;20476;-78
2022/07/14 10:51:49;;;;;;;0.30;0.30;;;;;;;20.10;67.04;102064.34;5026437;28;20033;-78
2022/07/14 10:54:31;;;;;;;0.60;0.40;;;;;;;20.05;66.98;102057.44;5025836;28;20544;-78
2022/07/14 10:57:17;;;;;;;2.45;0.50;;;;;;;20.01;66.69;102063.13;5027053;28;20040;-78
2022/07/14 10:59:44;;;;;;;1.60;0.60;;;;;;;19.97;67.23;102066.97;5027632;28;20086;-78
2022/07/14 11:02:12;;;;;;;1.08;0.50;;;;;;;19.91;66.99;102063.72;5028112;28;20133;-78
2022/07/14 11:05:02;;;;;;;0.45;0.40;;;;;;;19.86;67.37;102065.84;5027000;28;21593;-79
2022/07/14 11:07:48;;;;;;;0.43;0.40;;;;;;;19.83;66.74;102066.03;5028195;28;20021;-77
2022/07/14 11:10:19;;;;;;;0.45;0.43;;;;;;;19.76;67.60;102056.66;5027695;28;20082;-78
2022/07/14 11:13:07;;;;;;;2.10;0.50;;;;;;;19.79;67.55;102051.94;5026236;28;20124;-78
2022/07/14 11:15:43;;;;;;;0.63;0.38;;;;;;;20.01;67.07;102057.75;5019522;28;20039;-78
2022/07/14 11:18:18;;;;;;;1.08;0.50;;;;;;;20.27;66.10;102057.81;5026522;28;20508;-78
2022/07/14 11:21:07;;;;;;;0.30;0.30;;;;;;;20.42;66.16;102056.78;5003884;28;20145;-78
2022/07/14 11:23:36;;;;;;;0.90;0.40;;;;;;;20.55;66.14;102058.63;5020689;28;20043;-78
2022/07/14 11:26:07;;;;;;;1.30;0.40;;;;;;;20.67;65.90;102057.78;5023902;28;20037;-77
2022/07/14 11:28:52;;;;;;;0.47;0.40;;;;;;;20.77;64.39;102058.84;5024468;28;22026;-77
2022/07/14 11:31:22;;;;;;;1.90;0.45;;;;;;;20.77;65.06;102066.06;5023482;28;20040;-77
2022/07/14 11:36:35;;;;;;;2.13;0.50;;;;;;;20.87;65.27;102060.94;5025386;28;20029;-78
2022/07/14 11:39:20;;;;;;;4.35;0.75;;;;;;;21.00;62.06;102055.53;5025950;28;20034;-77
2022/07/14 11:41:55;;;;;;;0.30;0.30;;;;;;;21.00;61.45;102058.22;5026726;28;20044;-77